Time;durP1;ratioP1;P1;durP2;ratioP2;P2;SDS_P1;SDS_P2;PMS_P1;PMS_P2;Temp;Humidity;BMP_temperature;BMP_pressure;BME280_temperature;BME280_humidity;BME280_pressure;Samples;Min_cycle;Max_cycle;Signal;HPM_P1;HPM_P2
2023/11/09 00:00:16;;;;;;;11.60;2.50;;;;;;;5.40;88.87;100126.67;110711;1272;22246;-78
2023/11/09 00:03:05;;;;;;;14.00;3.30;;;;;;;5.37;88.90;100128.19;110674;1272;23149;-78
2023/11/09 00:05:38;;;;;;;14.60;3.50;;;;;;;5.36;89.02;100128.14;110763;1272;23033;-78
2023/11/09 00:08:09;;;;;;;17.10;3.60;;;;;;;5.36;89.05;100130.52;110661;1270;22197;-79
2023/11/09 00:10:37;;;;;;;17.30;3.40;;;;;;;5.36;88.94;100131.16;110732;1268;22342;-78
2023/11/09 00:13:05;;;;;;;10.70;3.50;;;;;;;5.34;88.82;100129.48;110687;1272;22384;-78
2023/11/09 00:15:34;;;;;;;16.40;4.20;;;;;;;5.33;88.95;100129.35;110632;1272;182807;-78
2023/11/09 00:18:03;;;;;;;12.90;3.00;;;;;;;5.30;88.77;100132.30;110771;1272;22271;-78
2023/11/09 00:20:33;;;;;;;18.10;3.50;;;;;;;5.27;88.84;100133.59;110752;1266;22205;-78
2023/11/09 00:23:02;;;;;;;12.80;3.10;;;;;;;5.24;88.71;100130.15;110776;1272;22230;-78
2023/11/09 00:25:31;;;;;;;14.00;3.40;;;;;;;5.21;88.74;100131.89;110776;1272;22289;-78
2023/11/09 00:27:59;;;;;;;12.50;3.20;;;;;;;5.20;88.76;100133.61;110687;1272;22296;-78
2023/11/09 00:30:28;;;;;;;10.80;2.70;;;;;;;5.18;88.87;100125.19;110719;1267;22173;-78
2023/11/09 00:32:57;;;;;;;15.50;3.10;;;;;;;5.16;88.73;100119.89;110659;1266;22919;-78
2023/11/09 00:35:25;;;;;;;12.20;3.40;;;;;;;5.15;88.81;100120.70;110735;1272;22466;-78
2023/11/09 00:37:54;;;;;;;13.20;3.20;;;;;;;5.14;88.91;100119.40;110756;1272;22948;-78
2023/11/09 00:40:23;;;;;;;12.80;2.90;;;;;;;5.14;88.80;100116.94;110715;1272;22904;-78
2023/11/09 00:42:51;;;;;;;9.90;2.70;;;;;;;5.13;88.67;100119.91;110779;1272;22227;-79
2023/11/09 00:45:20;;;;;;;13.60;3.30;;;;;;;5.11;88.70;100121.08;110733;1261;23070;-78
2023/11/09 00:47:52;;;;;;;10.80;2.90;;;;;;;5.09;88.74;100118.45;110757;1267;22353;-78
2023/11/09 00:50:21;;;;;;;10.70;3.00;;;;;;;5.07;88.62;100115.69;110752;1272;22158;-78
2023/11/09 00:52:50;;;;;;;11.70;2.50;;;;;;;5.03;88.48;100113.99;110750;1272;23350;-78
2023/11/09 00:55:18;;;;;;;12.60;2.80;;;;;;;5.00;88.56;100110.54;110682;1272;23437;-78
2023/11/09 00:57:50;;;;;;;9.60;2.40;;;;;;;4.97;88.69;100109.67;110680;1272;22178;-78
2023/11/09 01:00:20;;;;;;;12.30;2.40;;;;;;;4.95;88.68;100106.98;110760;1272;22337;-78
2023/11/09 01:02:49;;;;;;;12.30;2.70;;;;;;;4.92;88.74;100100.42;110666;1272;23290;-78
2023/11/09 01:05:17;;;;;;;15.00;2.90;;;;;;;4.89;88.77;100100.29;110541;1272;22274;-78
2023/11/09 01:07:46;;;;;;;11.40;2.60;;;;;;;4.86;88.63;100095.95;110675;1272;22189;-78
2023/11/09 01:10:17;;;;;;;12.50;2.10;;;;;;;4.84;88.78;100096.81;110777;1268;23012;-78
2023/11/09 01:12:45;;;;;;;15.70;2.60;;;;;;;4.83;88.95;100091.61;110745;1272;22233;-78
2023/11/09 01:15:14;;;;;;;11.80;2.40;;;;;;;4.84;88.99;100086.84;110763;1272;22307;-78
2023/11/09 01:18:00;;;;;;;9.90;2.20;;;;;;;4.82;89.11;100087.54;110721;1272;22172;-78
2023/11/09 01:20:29;;;;;;;13.10;2.50;;;;;;;4.81;89.00;100087.34;110773;1270;22169;-78
2023/11/09 01:22:58;;;;;;;10.10;2.20;;;;;;;4.79;88.81;100085.20;110764;1272;22213;-78
2023/11/09 01:25:26;;;;;;;12.50;2.10;;;;;;;4.78;88.86;100086.56;110760;1266;22189;-78
2023/11/09 01:27:54;;;;;;;15.40;2.50;;;;;;;4.78;88.94;100084.42;110738;1272;23121;-78
2023/11/09 01:30:25;;;;;;;11.70;2.50;;;;;;;4.79;88.92;100088.14;110702;1272;22198;-78
2023/11/09 01:32:53;;;;;;;8.20;1.80;;;;;;;4.77;88.85;100088.10;110716;1272;22437;-78
2023/11/09 01:35:21;;;;;;;13.50;2.40;;;;;;;4.73;88.78;100088.54;110622;1272;22419;-78
2023/11/09 01:37:50;;;;;;;13.20;2.90;;;;;;;4.71;88.93;100084.75;110773;1272;22160;-78
2023/11/09 01:40:23;;;;;;;10.80;2.50;;;;;;;4.70;88.93;100080.59;110700;1272;22202;-78
2023/11/09 01:42:54;;;;;;;7.30;1.50;;;;;;;4.69;88.83;100075.48;110685;1269;22860;-78
2023/11/09 01:45:23;;;;;;;10.50;1.80;;;;;;;4.68;88.95;100075.20;110716;1260;23245;-78
2023/11/09 01:47:52;;;;;;;10.40;2.00;;;;;;;4.66;88.93;100076.45;110689;1266;22213;-78
2023/11/09 01:50:21;;;;;;;8.90;1.70;;;;;;;4.65;88.87;100073.40;110798;1266;22385;-78
2023/11/09 01:52:50;;;;;;;9.10;2.30;;;;;;;4.65;88.81;100075.63;110741;1272;23040;-78
2023/11/09 01:55:19;;;;;;;9.50;2.10;;;;;;;4.63;88.84;100072.99;110759;1272;22231;-78
2023/11/09 01:57:49;;;;;;;11.90;1.90;;;;;;;4.61;88.89;100074.31;110594;1272;22934;-79
2023/11/09 02:00:18;;;;;;;10.40;1.90;;;;;;;4.60;89.00;100069.51;110765;1260;22904;-78
2023/11/09 02:02:48;;;;;;;9.90;1.80;;;;;;;4.60;89.10;100067.06;110735;1272;22265;-78
2023/11/09 02:05:16;;;;;;;;;;;;;;;4.60;89.06;100069.85;110755;1272;22443;-78
2023/11/09 02:07:45;;;;;;;12.60;2.80;;;;;;;4.58;89.11;100067.70;110705;1265;22177;-78
2023/11/09 02:10:14;;;;;;;13.50;2.50;;;;;;;4.58;89.20;100063.66;110672;1272;23011;-78
2023/11/09 02:12:42;;;;;;;10.70;2.00;;;;;;;4.58;89.16;100064.54;110733;1272;22981;-78
2023/11/09 02:15:14;;;;;;;13.70;2.20;;;;;;;4.57;89.26;100062.71;110770;1272;22968;-79
2023/11/09 02:17:42;;;;;;;14.60;2.50;;;;;;;4.57;89.21;100060.39;110760;1266;22339;-79
2023/11/09 02:20:15;;;;;;;11.90;1.70;;;;;;;4.55;89.27;100062.58;110787;1272;22175;-78
2023/11/09 02:22:46;;;;;;;6.90;1.50;;;;;;;4.53;89.22;100059.88;110674;1264;22238;-78
2023/11/09 02:25:15;;;;;;;7.90;1.40;;;;;;;4.52;89.33;100056.02;110775;1272;22381;-78
2023/11/09 02:27:44;;;;;;;9.80;1.30;;;;;;;4.53;89.41;100053.55;110775;1272;22207;-78
2023/11/09 02:30:13;;;;;;;7.40;1.80;;;;;;;4.54;89.50;100045.94;110589;1272;22184;-78
2023/11/09 02:32:42;;;;;;;10.40;1.80;;;;;;;4.55;89.49;100048.35;110740;1265;22181;-78
2023/11/09 02:35:10;;;;;;;8.60;1.60;;;;;;;4.55;89.49;100046.20;110754;1272;23072;-78
2023/11/09 02:37:39;;;;;;;12.10;2.40;;;;;;;4.57;89.54;100043.64;110759;1264;22193;-78
2023/11/09 02:40:14;;;;;;;13.10;1.90;;;;;;;4.57;89.40;100040.77;110778;1272;22206;-78
2023/11/09 02:42:42;;;;;;;7.70;1.60;;;;;;;4.56;89.35;100041.22;110763;1265;22179;-78
2023/11/09 02:45:11;;;;;;;11.90;2.20;;;;;;;4.54;89.27;100043.58;110770;1260;22145;-78
2023/11/09 02:47:41;;;;;;;9.40;1.70;;;;;;;4.51;89.16;100053.92;110754;1272;22340;-78
2023/11/09 02:50:10;;;;;;;13.00;1.90;;;;;;;4.48;89.18;100054.10;110715;1272;22166;-79
2023/11/09 02:52:41;;;;;;;8.70;2.10;;;;;;;4.47;89.38;100051.77;110665;1270;23195;-78
2023/11/09 02:55:12;;;;;;;16.20;2.80;;;;;;;4.44;89.32;100046.65;110749;1272;22224;-79
2023/11/09 02:57:41;;;;;;;13.50;3.60;;;;;;;4.41;89.50;100043.97;110795;1272;22648;-79
2023/11/09 03:00:11;;;;;;;14.80;4.40;;;;;;;4.40;89.54;100038.31;110796;1272;22309;-78
2023/11/09 03:02:41;;;;;;;14.60;4.30;;;;;;;4.39;89.64;100035.65;110769;1272;22202;-78
2023/11/09 03:05:10;;;;;;;17.30;5.60;;;;;;;4.39;89.62;100036.14;110773;1272;22347;-79
2023/11/09 03:07:39;;;;;;;20.70;6.60;;;;;;;4.38;89.68;100037.66;110766;1272;22455;-78
2023/11/09 03:10:09;;;;;;;24.70;7.40;;;;;;;4.38;89.74;100034.75;110748;1272;22371;-79
2023/11/09 03:12:37;;;;;;;18.10;6.10;;;;;;;4.38;89.89;100031.83;110767;1272;22472;-78
2023/11/09 03:15:10;;;;;;;13.90;4.90;;;;;;;4.37;89.81;100034.07;110644;1272;22384;-78
2023/11/09 03:17:40;;;;;;;14.50;4.80;;;;;;;4.38;89.97;100032.02;110698;1272;22348;-78
2023/11/09 03:20:10;;;;;;;18.10;4.60;;;;;;;4.38;90.08;100025.75;110770;1266;22232;-78
2023/11/09 03:22:39;;;;;;;16.90;4.00;;;;;;;4.37;90.00;100028.31;110767;1272;22342;-78
2023/11/09 03:25:09;;;;;;;12.00;3.70;;;;;;;4.38;90.08;100020.23;110803;1272;22171;-78
2023/11/09 03:27:40;;;;;;;12.80;2.80;;;;;;;4.39;89.93;100017.91;110787;1272;22784;-78
2023/11/09 03:30:11;;;;;;;8.80;2.60;;;;;;;4.37;90.00;100017.34;110771;1272;22211;-78
2023/11/09 03:32:39;;;;;;;9.80;2.30;;;;;;;4.39;90.06;100012.94;110757;1268;22817;-78
2023/11/09 03:35:09;;;;;;;13.40;2.50;;;;;;;4.38;90.00;100018.25;110777;1266;22252;-78
2023/11/09 03:37:37;;;;;;;11.50;2.30;;;;;;;4.36;89.96;100014.14;110742;1266;22483;-78
2023/11/09 03:40:09;;;;;;;9.60;2.50;;;;;;;4.36;90.08;100008.77;110658;1272;22205;-78
2023/11/09 03:42:39;;;;;;;10.80;2.20;;;;;;;4.35;90.14;100007.38;110745;1272;22333;-78
2023/11/09 03:45:10;;;;;;;9.70;2.30;;;;;;;4.35;90.09;100005.80;110689;1272;22298;-78
2023/11/09 03:47:40;;;;;;;8.80;1.70;;;;;;;4.35;90.18;100004.29;110673;1266;22337;-78
2023/11/09 03:50:11;;;;;;;11.10;2.10;;;;;;;4.35;90.15;99996.73;110768;1266;23498;-78
2023/11/09 03:52:39;;;;;;;10.60;1.90;;;;;;;4.34;90.23;99993.77;110748;1272;23007;-78
2023/11/09 03:55:11;;;;;;;8.00;2.10;;;;;;;4.33;90.25;99987.61;110746;1267;22237;-79
2023/11/09 03:57:40;;;;;;;8.20;1.70;;;;;;;4.32;90.22;99983.86;110781;1272;22177;-78
2023/11/09 04:00:11;;;;;;;7.60;1.60;;;;;;;4.32;90.38;99981.80;110765;1272;22234;-78
2023/11/09 04:02:41;;;;;;;6.60;1.50;;;;;;;4.33;90.32;99984.21;110677;1270;22839;-78
2023/11/09 04:05:10;;;;;;;6.70;1.20;;;;;;;4.35;90.46;99984.00;110692;1264;22168;-78
2023/11/09 04:07:40;;;;;;;3.90;1.00;;;;;;;4.35;90.38;99981.80;110669;1272;22630;-78
2023/11/09 04:10:12;;;;;;;8.10;1.50;;;;;;;4.35;90.36;99976.41;110699;1272;22891;-78
2023/11/09 04:12:40;;;;;;;6.90;1.20;;;;;;;4.37;90.42;99973.99;110672;1272;22174;-78
2023/11/09 04:15:14;;;;;;;4.50;1.20;;;;;;;4.38;90.44;99967.48;110737;1272;23013;-78
2023/11/09 04:17:43;;;;;;;9.70;1.20;;;;;;;4.38;90.35;99960.38;110669;1272;22341;-78
2023/11/09 04:20:12;;;;;;;7.70;1.10;;;;;;;4.39;90.41;99954.82;110708;1272;22243;-78
2023/11/09 04:22:40;;;;;;;7.30;1.00;;;;;;;4.40;90.34;99954.86;110738;1272;22327;-78
2023/11/09 04:25:11;;;;;;;5.90;1.10;;;;;;;4.41;90.34;99953.89;110725;1272;22331;-78
2023/11/09 04:27:40;;;;;;;6.00;1.00;;;;;;;4.41;90.23;99951.59;110755;1272;23301;-78
2023/11/09 04:30:09;;;;;;;8.50;1.00;;;;;;;4.40;90.21;99943.23;110784;1272;22292;-78
2023/11/09 04:32:39;;;;;;;3.50;0.80;;;;;;;4.39;90.27;99941.06;110704;1260;22415;-78
2023/11/09 04:35:08;;;;;;;4.10;1.00;;;;;;;4.39;90.40;99941.00;110771;1269;22180;-78
2023/11/09 04:37:41;;;;;;;5.50;1.00;;;;;;;4.40;90.39;99934.11;110728;1265;21970;-78
2023/11/09 04:40:15;;;;;;;6.40;0.90;;;;;;;4.41;90.37;99935.00;110725;1272;22836;-78
2023/11/09 04:42:44;;;;;;;7.60;1.00;;;;;;;4.41;90.44;99933.43;110626;1272;22168;-78
2023/11/09 04:45:12;;;;;;;4.10;0.70;;;;;;;4.42;90.43;99935.69;110673;1272;22203;-78
2023/11/09 04:47:41;;;;;;;7.10;1.00;;;;;;;4.42;90.41;99928.42;110794;1272;23260;-77
2023/11/09 04:50:14;;;;;;;8.50;0.80;;;;;;;4.43;90.36;99927.45;110724;1265;23106;-78
2023/11/09 04:52:44;;;;;;;4.20;0.80;;;;;;;4.44;90.35;99924.17;110681;1269;22835;-79
2023/11/09 04:55:14;;;;;;;;;;;;;;;4.45;90.38;99919.31;110680;1272;22413;-78
2023/11/09 05:09:06;;;;;;;9.10;1.90;;;;;;;4.47;90.19;99916.00;110290;1275;22471;-79
2023/11/09 05:11:34;;;;;;;7.60;1.50;;;;;;;4.47;90.09;99916.50;110250;1272;22205;-77
2023/11/09 05:14:03;;;;;;;7.40;1.70;;;;;;;4.46;90.14;99917.38;110271;1269;22524;-76
2023/11/09 05:16:31;;;;;;;10.50;2.00;;;;;;;4.47;90.04;99915.30;110253;1269;22296;-76
2023/11/09 05:19:00;;;;;;;8.80;2.50;;;;;;;4.47;89.98;99914.53;110323;1269;22435;-76
2023/11/09 05:21:28;;;;;;;10.10;1.50;;;;;;;4.46;90.04;99908.71;110261;1273;23087;-77
2023/11/09 05:23:56;;;;;;;6.00;1.50;;;;;;;4.45;89.86;99908.83;110252;1269;22241;-78
2023/11/09 05:26:26;;;;;;;13.10;2.00;;;;;;;4.43;89.96;99900.03;110325;1271;22322;-76
2023/11/09 05:28:54;;;;;;;9.50;1.80;;;;;;;4.42;89.98;99903.70;110280;1276;22267;-76
2023/11/09 05:31:24;;;;;;;16.20;3.30;;;;;;;4.41;90.00;99905.16;110391;1272;22685;-76
2023/11/09 05:33:53;;;;;;;13.50;2.60;;;;;;;4.39;89.89;99906.31;110680;1272;22384;-77
2023/11/09 05:36:22;;;;;;;7.90;1.60;;;;;;;4.38;89.90;99911.35;110733;1266;22177;-77
2023/11/09 05:38:55;;;;;;;8.20;1.50;;;;;;;4.36;89.73;99905.88;110736;1272;22214;-77
2023/11/09 05:41:25;;;;;;;9.50;1.60;;;;;;;4.34;89.79;99904.92;110705;1272;22384;-77
2023/11/09 05:43:54;;;;;;;9.20;1.40;;;;;;;4.31;89.87;99901.46;110717;1272;22670;-77
2023/11/09 05:46:22;;;;;;;9.40;1.70;;;;;;;4.29;89.79;99893.00;110599;1272;22218;-77
2023/11/09 05:48:51;;;;;;;7.40;1.20;;;;;;;4.29;89.97;99888.91;110732;1269;22189;-76
2023/11/09 05:51:23;;;;;;;7.80;1.50;;;;;;;4.27;89.96;99886.10;110753;1272;22426;-75
2023/11/09 05:53:53;;;;;;;11.60;1.80;;;;;;;4.26;89.92;99885.43;110741;1272;22947;-74
2023/11/09 05:56:23;;;;;;;7.80;2.00;;;;;;;4.26;89.89;99882.52;110800;1267;23375;-74
2023/11/09 05:58:53;;;;;;;13.40;2.70;;;;;;;4.26;89.94;99880.64;110745;1272;22660;-74
2023/11/09 06:01:22;;;;;;;14.00;2.70;;;;;;;4.25;89.87;99882.55;110788;1268;23022;-74
2023/11/09 06:03:50;;;;;;;8.10;1.70;;;;;;;4.24;89.83;99879.91;110755;1272;22211;-74
2023/11/09 06:06:18;;;;;;;9.60;1.60;;;;;;;4.22;89.77;99876.73;110781;1272;22254;-75
2023/11/09 06:08:50;;;;;;;11.30;1.30;;;;;;;4.20;89.88;99870.15;110715;1272;22138;-75
2023/11/09 06:11:19;;;;;;;8.30;1.40;;;;;;;4.20;89.97;99863.00;110757;1266;22173;-74
2023/11/09 06:13:47;;;;;;;6.30;1.40;;;;;;;4.19;90.05;99862.23;110587;1269;22876;-75
2023/11/09 06:16:16;;;;;;;8.80;2.10;;;;;;;4.18;90.15;99865.66;110743;1272;22208;-74
2023/11/09 06:18:46;;;;;;;10.00;2.20;;;;;;;4.17;90.27;99866.10;110807;1268;22279;-74
2023/11/09 06:21:14;;;;;;;10.60;2.10;;;;;;;4.16;90.44;99867.48;110773;1272;22242;-74
2023/11/09 06:23:42;;;;;;;9.00;1.70;;;;;;;4.15;90.39;99871.61;110675;1272;22337;-75
2023/11/09 06:26:11;;;;;;;8.70;1.70;;;;;;;4.14;90.47;99876.05;110696;1266;23503;-74
2023/11/09 06:28:40;;;;;;;9.10;1.60;;;;;;;4.14;90.75;99880.71;110713;1269;22894;-74
2023/11/09 06:31:09;;;;;;;7.20;1.30;;;;;;;4.14;90.80;99880.15;110771;1272;22974;-74
2023/11/09 06:33:38;;;;;;;11.50;1.30;;;;;;;4.16;90.97;99874.91;110621;1272;23343;-74
2023/11/09 06:36:07;;;;;;;7.50;1.60;;;;;;;4.17;90.91;99876.51;110512;1273;22306;-75
2023/11/09 06:38:38;;;;;;;7.90;1.50;;;;;;;4.17;90.88;99872.55;110680;1272;22184;-75
2023/11/09 06:41:07;;;;;;;9.70;1.70;;;;;;;4.17;90.92;99873.98;110742;1266;22227;-75
2023/11/09 06:43:37;;;;;;;5.30;1.40;;;;;;;4.18;91.02;99875.05;110751;1272;22402;-75
2023/11/09 06:46:07;;;;;;;9.80;1.50;;;;;;;4.20;91.09;99872.70;110727;1266;22209;-75
2023/11/09 06:48:35;;;;;;;11.80;2.40;;;;;;;4.22;91.12;99880.13;110562;1272;22294;-75
2023/11/09 06:51:04;;;;;;;8.40;1.60;;;;;;;4.24;91.10;99883.85;110680;1269;22456;-75
2023/11/09 06:53:33;;;;;;;9.50;1.50;;;;;;;4.27;91.15;99881.15;110682;1253;22452;-75
2023/11/09 06:56:02;;;;;;;10.30;1.70;;;;;;;4.30;91.22;99885.79;110741;1272;22201;-75
2023/11/09 06:58:31;;;;;;;10.60;1.50;;;;;;;4.34;91.40;99883.91;110746;1269;22536;-75
2023/11/09 07:00:59;;;;;;;8.30;1.50;;;;;;;4.40;91.52;99884.59;110647;1272;22202;-75
2023/11/09 07:03:28;;;;;;;10.00;1.90;;;;;;;4.47;91.75;99887.59;110744;1272;22514;-75
2023/11/09 07:05:56;;;;;;;9.30;1.90;;;;;;;4.53;91.90;99884.67;110754;1272;22349;-75
2023/11/09 07:08:28;;;;;;;8.90;1.80;;;;;;;4.62;91.77;99883.20;110677;1272;22274;-75
2023/11/09 07:10:58;;;;;;;11.40;2.20;;;;;;;4.72;91.84;99884.42;110740;1272;22248;-75
2023/11/09 07:13:26;;;;;;;11.00;2.70;;;;;;;4.80;91.85;99885.09;110727;1266;22170;-75
2023/11/09 07:15:55;;;;;;;19.50;4.80;;;;;;;4.89;91.97;99879.80;110748;1269;23198;-75
2023/11/09 07:18:23;;;;;;;20.80;3.70;;;;;;;4.98;91.87;99881.86;110773;1272;22153;-75
2023/11/09 07:20:52;;;;;;;17.50;3.40;;;;;;;5.05;91.90;99879.86;110759;1266;22168;-75
2023/11/09 07:23:24;;;;;;;13.50;2.80;;;;;;;5.12;91.59;99885.38;110724;1272;22192;-75
2023/11/09 07:25:52;;;;;;;13.50;3.10;;;;;;;5.18;91.65;99886.45;110538;1272;22366;-75
2023/11/09 07:28:21;;;;;;;13.10;2.70;;;;;;;5.23;91.69;99886.77;110729;1266;22367;-75
2023/11/09 07:30:51;;;;;;;12.90;2.70;;;;;;;5.27;91.45;99886.32;110760;1272;22240;-75
2023/11/09 07:33:21;;;;;;;8.60;1.70;;;;;;;5.31;91.28;99884.18;110740;1272;22267;-74
2023/11/09 07:35:49;;;;;;;11.60;2.50;;;;;;;5.34;91.28;99886.52;110769;1272;21968;-75
2023/11/09 07:38:19;;;;;;;10.60;2.30;;;;;;;5.38;91.25;99887.02;110766;1268;22203;-75
2023/11/09 07:40:53;;;;;;;13.30;2.50;;;;;;;5.42;91.33;99874.14;110744;1272;22209;-75
2023/11/09 07:43:23;;;;;;;10.60;2.30;;;;;;;5.46;91.35;99872.77;110752;1268;22188;-75
2023/11/09 07:45:51;;;;;;;;;;;;;;;5.51;91.35;99870.06;110784;1272;22488;-75
2023/11/09 07:48:21;;;;;;;11.70;3.00;;;;;;;5.56;91.50;99864.83;110710;1272;23158;-74
2023/11/09 07:50:51;;;;;;;10.50;2.40;;;;;;;5.61;91.36;99867.70;110754;1272;23087;-75
2023/11/09 07:53:19;;;;;;;9.90;2.80;;;;;;;5.66;91.40;99868.85;110700;1272;22150;-75
2023/11/09 07:55:48;;;;;;;12.30;2.60;;;;;;;5.72;91.60;99859.83;110708;1272;23134;-75
2023/11/09 07:58:17;;;;;;;10.30;2.10;;;;;;;5.78;91.54;99851.14;110780;1272;22296;-75
2023/11/09 08:00:46;;;;;;;9.00;2.30;;;;;;;5.84;91.46;99840.31;110787;1272;22968;-75
2023/11/09 08:03:17;;;;;;;10.70;2.30;;;;;;;5.89;91.31;99837.66;110629;1272;22759;-75
2023/11/09 08:05:47;;;;;;;10.20;2.30;;;;;;;5.95;91.45;99831.46;110752;1272;22337;-75
2023/11/09 08:08:16;;;;;;;11.00;1.90;;;;;;;6.03;91.37;99825.38;110697;1272;22024;-75
2023/11/09 08:10:45;;;;;;;12.40;2.20;;;;;;;6.09;91.31;99820.54;110743;1272;22342;-75
2023/11/09 08:13:13;;;;;;;17.80;2.60;;;;;;;6.15;91.47;99820.02;110704;1257;22286;-75
2023/11/09 08:15:42;;;;;;;10.90;2.60;;;;;;;6.22;91.41;99817.95;110781;1272;22453;-75
2023/11/09 08:18:10;;;;;;;7.30;1.90;;;;;;;6.29;91.43;99815.59;110710;1272;22167;-75
2023/11/09 08:20:39;;;;;;;12.90;2.20;;;;;;;6.36;91.36;99811.96;110786;1272;22329;-75
2023/11/09 08:23:08;;;;;;;10.20;1.60;;;;;;;6.43;91.13;99812.06;110685;1272;22217;-75
2023/11/09 08:25:41;;;;;;;8.00;1.60;;;;;;;6.50;91.35;99813.98;110774;1269;22466;-75
2023/11/09 08:28:09;;;;;;;8.10;1.50;;;;;;;6.58;91.16;99815.35;110735;1272;22922;-75
2023/11/09 08:30:39;;;;;;;9.60;1.60;;;;;;;6.65;91.10;99813.33;110752;1272;22458;-75
2023/11/09 08:33:09;;;;;;;8.80;1.70;;;;;;;6.72;91.17;99811.75;110761;1272;22151;-75
2023/11/09 08:35:38;;;;;;;10.00;1.40;;;;;;;6.78;91.00;99809.10;110773;1257;22380;-75
2023/11/09 08:38:08;;;;;;;8.00;1.80;;;;;;;6.83;91.06;99810.36;110720;1272;22202;-76
2023/11/09 08:40:38;;;;;;;10.80;1.90;;;;;;;6.89;90.56;99812.42;110704;1272;22916;-75
2023/11/09 08:43:06;;;;;;;11.10;2.30;;;;;;;6.93;90.54;99815.62;110712;1272;22856;-75
2023/11/09 08:45:38;;;;;;;13.70;2.70;;;;;;;7.00;90.21;99812.31;110745;1272;22472;-75
2023/11/09 08:48:07;;;;;;;10.40;2.70;;;;;;;7.06;90.71;99812.24;110720;1268;23005;-75
2023/11/09 08:50:38;;;;;;;12.70;2.90;;;;;;;7.12;90.75;99813.52;110722;1272;22898;-75
2023/11/09 08:53:06;;;;;;;;;;;;;;;7.17;90.70;99812.41;110696;1269;22424;-75
2023/11/09 08:55:35;;;;;;;12.80;2.90;;;;;;;7.21;90.88;99804.45;110688;1272;22405;-75
2023/11/09 08:58:03;;;;;;;11.00;2.60;;;;;;;7.26;90.82;99807.29;110728;1272;22157;-75
2023/11/09 09:00:34;;;;;;;12.40;2.80;;;;;;;7.31;90.37;99803.23;110739;1272;22152;-74
2023/11/09 09:03:02;;;;;;;14.10;3.50;;;;;;;7.37;90.58;99799.27;110675;1272;22213;-75
2023/11/09 09:05:31;;;;;;;12.00;2.50;;;;;;;7.41;90.12;99796.20;110742;1272;22206;-74
2023/11/09 09:08:00;;;;;;;11.80;2.30;;;;;;;7.45;89.90;99796.80;110728;1272;22138;-75
2023/11/09 09:10:29;;;;;;;10.50;2.60;;;;;;;7.50;89.97;99791.52;110694;1272;22173;-75
2023/11/09 09:12:59;;;;;;;13.20;3.00;;;;;;;7.54;89.52;99789.55;110728;1272;22201;-75
2023/11/09 09:15:28;;;;;;;9.00;2.10;;;;;;;7.60;89.57;99791.84;110762;1269;22212;-75
2023/11/09 09:17:58;;;;;;;12.30;2.50;;;;;;;7.66;89.76;99792.79;110733;1272;22402;-74
2023/11/09 09:20:27;;;;;;;12.60;2.90;;;;;;;7.71;89.50;99790.40;110744;1272;22150;-77
2023/11/09 09:22:59;;;;;;;11.40;2.50;;;;;;;7.77;89.23;99788.30;110644;1272;22177;-74
2023/11/09 09:25:29;;;;;;;10.10;2.20;;;;;;;7.82;89.24;99788.69;110674;1272;22267;-76
2023/11/09 09:27:58;;;;;;;13.70;2.10;;;;;;;7.88;89.10;99786.98;110614;1270;22931;-75
2023/11/09 09:30:26;;;;;;;12.50;2.10;;;;;;;7.93;89.28;99777.80;110756;1269;22252;-74
2023/11/09 09:32:55;;;;;;;11.50;2.30;;;;;;;7.98;89.18;99773.77;110707;1269;23049;-73
2023/11/09 09:35:24;;;;;;;8.60;1.70;;;;;;;8.04;89.17;99770.05;110693;1272;22850;-75
2023/11/09 09:37:53;;;;;;;7.20;1.70;;;;;;;8.11;89.18;99765.71;110716;1270;22186;-75
2023/11/09 09:40:23;;;;;;;6.30;1.20;;;;;;;8.19;88.66;99762.90;110741;1272;22223;-74
2023/11/09 09:42:52;;;;;;;8.30;1.60;;;;;;;8.27;88.10;99760.34;110719;1272;22197;-75
2023/11/09 09:45:26;;;;;;;5.90;1.20;;;;;;;8.34;87.69;99757.98;110733;1272;22207;-76
2023/11/09 09:47:59;;;;;;;5.60;1.00;;;;;;;8.41;87.71;99754.20;110671;1272;22614;-77
2023/11/09 09:50:29;;;;;;;7.00;1.00;;;;;;;8.48;87.07;99757.30;110741;1272;22992;-76
2023/11/09 09:52:59;;;;;;;5.20;1.00;;;;;;;8.56;86.92;99752.75;110722;1272;23020;-76
2023/11/09 09:55:28;;;;;;;4.90;1.30;;;;;;;8.64;86.58;99750.61;110747;1272;22167;-75
2023/11/09 09:57:58;;;;;;;9.00;1.00;;;;;;;8.73;86.50;99746.38;110603;1272;22201;-75
2023/11/09 10:00:33;;;;;;;8.30;1.40;;;;;;;8.80;86.20;99740.69;110643;1272;22601;-75
2023/11/09 10:03:02;;;;;;;6.40;1.10;;;;;;;8.86;85.91;99734.48;110655;1272;23188;-76
2023/11/09 10:05:33;;;;;;;7.20;1.30;;;;;;;8.91;85.74;99732.77;110736;1272;22202;-77
2023/11/09 10:08:03;;;;;;;6.60;1.10;;;;;;;8.95;85.86;99737.41;110482;1259;22230;-76
2023/11/09 10:10:34;;;;;;;8.50;1.30;;;;;;;8.99;85.66;99729.29;110681;1272;22721;-76
2023/11/09 10:13:06;;;;;;;8.40;1.30;;;;;;;9.06;85.64;99730.30;110675;1272;22304;-76
2023/11/09 10:15:35;;;;;;;7.00;1.20;;;;;;;9.10;85.83;99722.42;110689;1272;22144;-76
2023/11/09 10:18:05;;;;;;;7.40;1.10;;;;;;;9.16;85.51;99716.13;110716;1266;22339;-76
2023/11/09 10:20:34;;;;;;;5.70;0.90;;;;;;;9.21;85.56;99706.14;110694;1272;22693;-76
2023/11/09 10:23:07;;;;;;;9.60;1.30;;;;;;;9.27;85.33;99704.84;110670;1272;23273;-76
2023/11/09 10:25:36;;;;;;;9.00;1.60;;;;;;;9.36;85.16;99697.56;110730;1269;22980;-76
2023/11/09 10:28:07;;;;;;;3.90;1.00;;;;;;;9.45;84.95;99694.16;110784;1269;22242;-76
2023/11/09 10:30:43;;;;;;;4.40;0.90;;;;;;;9.54;84.90;99701.63;110675;1272;22221;-76
2023/11/09 10:33:14;;;;;;;4.80;0.90;;;;;;;9.60;84.39;99697.05;110654;1272;22213;-76
2023/11/09 10:35:43;;;;;;;9.60;1.00;;;;;;;9.66;83.70;99687.06;110672;1272;22431;-77
2023/11/09 10:38:13;;;;;;;6.80;1.20;;;;;;;9.72;83.14;99683.45;110691;1272;22228;-76
2023/11/09 10:40:44;;;;;;;9.80;1.20;;;;;;;9.77;83.26;99678.34;110684;1272;23173;-76
2023/11/09 10:43:14;;;;;;;4.60;0.80;;;;;;;9.83;82.83;99675.27;110675;1272;22538;-76
2023/11/09 10:45:44;;;;;;;5.40;0.70;;;;;;;9.90;82.59;99672.86;110715;1272;22196;-76
2023/11/09 10:48:17;;;;;;;4.50;0.90;;;;;;;9.96;82.44;99670.83;110736;1272;22887;-76
2023/11/09 10:50:47;;;;;;;6.70;1.00;;;;;;;10.00;82.29;99670.41;110731;1272;22343;-76
2023/11/09 10:53:18;;;;;;;5.80;1.00;;;;;;;10.05;82.59;99671.17;110530;1273;22283;-77
2023/11/09 10:55:49;;;;;;;4.40;1.00;;;;;;;10.09;82.52;99666.53;110743;1272;22312;-78
2023/11/09 10:58:20;;;;;;;4.90;0.90;;;;;;;10.15;82.41;99667.42;110679;1272;22978;-76
2023/11/09 11:00:51;;;;;;;6.00;0.70;;;;;;;10.22;81.82;99675.23;110723;1269;22220;-76
2023/11/09 11:03:27;;;;;;;6.80;1.20;;;;;;;10.29;81.65;99671.70;110453;1274;22271;-77
2023/11/09 11:06:00;;;;;;;7.30;1.00;;;;;;;10.37;80.63;99670.61;110635;1270;22427;-76
2023/11/09 11:08:35;;;;;;;7.20;0.90;;;;;;;10.43;80.22;99673.52;110705;1272;22593;-75
2023/11/09 11:11:05;;;;;;;5.50;0.90;;;;;;;10.47;79.28;99668.04;110733;1272;22166;-76
2023/11/09 11:13:35;;;;;;;4.60;0.80;;;;;;;10.50;79.24;99659.02;110708;1268;22161;-75
2023/11/09 11:16:56;;;;;;;5.60;0.70;;;;;;;10.54;79.21;99658.66;110615;1272;22835;-77
2023/11/09 11:19:52;;;;;;;6.00;0.90;;;;;;;10.59;79.58;99657.90;109737;1284;23106;-77
2023/11/09 11:22:41;;;;;;;7.20;1.00;;;;;;;10.59;79.20;99655.10;109756;1280;22222;-76
2023/11/09 11:25:28;;;;;;;6.70;1.20;;;;;;;10.61;79.17;99647.52;109746;1280;22707;-77
2023/11/09 11:27:58;;;;;;;4.60;0.90;;;;;;;10.64;79.46;99643.67;109780;1284;22972;-76
2023/11/09 11:30:28;;;;;;;5.60;1.20;;;;;;;10.65;79.18;99632.16;109783;1281;22202;-77
2023/11/09 11:32:59;;;;;;;6.50;0.80;;;;;;;10.69;78.55;99622.91;109760;1284;22243;-77
2023/11/09 11:35:33;;;;;;;4.50;0.90;;;;;;;10.75;78.77;99622.55;109750;1284;23063;-77
2023/11/09 11:38:18;;;;;;;5.70;1.00;;;;;;;10.77;78.28;99619.52;109760;1280;22418;-77
2023/11/09 11:40:47;;;;;;;9.90;1.50;;;;;;;10.80;78.03;99622.05;109754;1284;22709;-76
2023/11/09 11:43:17;;;;;;;9.00;1.10;;;;;;;10.84;78.14;99619.58;109740;1284;22982;-76
2023/11/09 11:45:48;;;;;;;7.40;0.80;;;;;;;10.89;77.98;99621.56;109768;1281;22358;-76
2023/11/09 11:48:23;;;;;;;6.50;1.00;;;;;;;10.95;77.75;99620.79;109780;1284;22216;-76
2023/11/09 11:50:51;;;;;;;7.00;1.00;;;;;;;11.01;77.62;99617.98;109763;1284;22328;-77